sensor_id;sensor_type;location;lat;lon;timestamp;P1;durP1;ratioP1;P2;durP2;ratioP2
7215;SDS011;3649;48.798;9.798;2022-12-29T00:02:22;15.90;;;12.07;;
7215;SDS011;3649;48.798;9.798;2022-12-29T00:04:49;19.73;;;11.80;;
7215;SDS011;3649;48.798;9.798;2022-12-29T00:07:17;13.83;;;10.60;;
7215;SDS011;3649;48.798;9.798;2022-12-29T00:09:44;9.70;;;8.50;;
7215;SDS011;3649;48.798;9.798;2022-12-29T00:12:10;11.50;;;8.03;;
7215;SDS011;3649;48.798;9.798;2022-12-29T00:14:37;10.50;;;7.87;;
7215;SDS011;3649;48.798;9.798;2022-12-29T00:17:22;9.00;;;6.87;;
7215;SDS011;3649;48.798;9.798;2022-12-29T00:19:49;11.10;;;8.10;;
7215;SDS011;3649;48.798;9.798;2022-12-29T00:22:34;12.73;;;8.67;;
7215;SDS011;3649;48.798;9.798;2022-12-29T00:25:20;9.13;;;7.63;;
7215;SDS011;3649;48.798;9.798;2022-12-29T00:28:07;14.00;;;9.37;;
7215;SDS011;3649;48.798;9.798;2022-12-29T00:30:57;13.07;;;9.00;;
7215;SDS011;3649;48.798;9.798;2022-12-29T00:33:44;10.90;;;9.00;;
7215;SDS011;3649;48.798;9.798;2022-12-29T00:36:33;11.73;;;8.37;;
7215;SDS011;3649;48.798;9.798;2022-12-29T00:39:14;11.07;;;8.23;;
7215;SDS011;3649;48.798;9.798;2022-12-29T00:42:06;10.10;;;6.63;;
7215;SDS011;3649;48.798;9.798;2022-12-29T00:44:53;9.17;;;6.53;;
7215;SDS011;3649;48.798;9.798;2022-12-29T00:47:20;10.13;;;7.00;;
7215;SDS011;3649;48.798;9.798;2022-12-29T00:49:46;6.77;;;5.80;;
7215;SDS011;3649;48.798;9.798;2022-12-29T00:52:13;7.43;;;6.63;;
7215;SDS011;3649;48.798;9.798;2022-12-29T00:54:40;6.87;;;5.97;;
7215;SDS011;3649;48.798;9.798;2022-12-29T00:57:08;7.67;;;5.67;;
7215;SDS011;3649;48.798;9.798;2022-12-29T00:59:36;8.17;;;5.90;;
7215;SDS011;3649;48.798;9.798;2022-12-29T01:02:03;8.40;;;5.90;;
7215;SDS011;3649;48.798;9.798;2022-12-29T01:04:31;5.83;;;5.17;;
7215;SDS011;3649;48.798;9.798;2022-12-29T01:06:58;7.00;;;5.00;;
7215;SDS011;3649;48.798;9.798;2022-12-29T01:09:26;8.87;;;5.87;;
7215;SDS011;3649;48.798;9.798;2022-12-29T01:12:11;8.40;;;5.50;;
7215;SDS011;3649;48.798;9.798;2022-12-29T01:14:39;7.43;;;5.63;;
7215;SDS011;3649;48.798;9.798;2022-12-29T01:17:06;6.00;;;5.40;;
7215;SDS011;3649;48.798;9.798;2022-12-29T01:19:33;6.47;;;5.27;;
7215;SDS011;3649;48.798;9.798;2022-12-29T01:22:00;6.07;;;4.70;;
7215;SDS011;3649;48.798;9.798;2022-12-29T01:24:27;9.73;;;5.10;;
7215;SDS011;3649;48.798;9.798;2022-12-29T01:26:54;5.70;;;5.03;;
7215;SDS011;3649;48.798;9.798;2022-12-29T01:29:21;3.67;;;3.30;;
7215;SDS011;3649;48.798;9.798;2022-12-29T01:31:48;3.50;;;3.30;;
7215;SDS011;3649;48.798;9.798;2022-12-29T01:34:16;3.00;;;2.80;;
7215;SDS011;3649;48.798;9.798;2022-12-29T01:36:44;4.13;;;3.00;;
7215;SDS011;3649;48.798;9.798;2022-12-29T01:39:11;4.10;;;2.90;;
7215;SDS011;3649;48.798;9.798;2022-12-29T01:41:39;2.83;;;2.63;;
7215;SDS011;3649;48.798;9.798;2022-12-29T01:47:10;3.63;;;3.07;;
7215;SDS011;3649;48.798;9.798;2022-12-29T01:49:37;3.93;;;3.30;;
7215;SDS011;3649;48.798;9.798;2022-12-29T01:52:05;4.47;;;4.07;;
7215;SDS011;3649;48.798;9.798;2022-12-29T01:54:36;4.77;;;3.87;;
7215;SDS011;3649;48.798;9.798;2022-12-29T01:57:08;4.20;;;3.57;;
7215;SDS011;3649;48.798;9.798;2022-12-29T01:59:46;4.50;;;3.63;;
7215;SDS011;3649;48.798;9.798;2022-12-29T02:02:26;4.23;;;3.40;;
7215;SDS011;3649;48.798;9.798;2022-12-29T02:04:58;5.50;;;3.77;;
7215;SDS011;3649;48.798;9.798;2022-12-29T02:07:30;4.07;;;3.20;;
7215;SDS011;3649;48.798;9.798;2022-12-29T02:09:57;3.30;;;3.10;;
7215;SDS011;3649;48.798;9.798;2022-12-29T02:12:26;2.87;;;2.63;;
7215;SDS011;3649;48.798;9.798;2022-12-29T02:14:54;3.33;;;3.00;;
7215;SDS011;3649;48.798;9.798;2022-12-29T02:28:52;3.90;;;3.53;;
7215;SDS011;3649;48.798;9.798;2022-12-29T02:31:28;4.67;;;3.90;;
7215;SDS011;3649;48.798;9.798;2022-12-29T02:34:16;5.00;;;3.90;;
7215;SDS011;3649;48.798;9.798;2022-12-29T02:40:03;5.47;;;4.37;;
7215;SDS011;3649;48.798;9.798;2022-12-29T02:46:03;7.43;;;5.00;;
7215;SDS011;3649;48.798;9.798;2022-12-29T02:48:52;6.50;;;4.57;;
7215;SDS011;3649;48.798;9.798;2022-12-29T02:51:33;4.57;;;4.17;;
7215;SDS011;3649;48.798;9.798;2022-12-29T02:54:05;5.17;;;4.20;;
7215;SDS011;3649;48.798;9.798;2022-12-29T02:56:50;7.10;;;4.47;;
7215;SDS011;3649;48.798;9.798;2022-12-29T02:59:17;4.93;;;4.43;;
7215;SDS011;3649;48.798;9.798;2022-12-29T03:02:04;6.03;;;4.93;;
7215;SDS011;3649;48.798;9.798;2022-12-29T03:10:35;6.40;;;5.17;;
7215;SDS011;3649;48.798;9.798;2022-12-29T03:13:17;6.67;;;5.30;;
7215;SDS011;3649;48.798;9.798;2022-12-29T03:19:12;7.60;;;5.73;;
7215;SDS011;3649;48.798;9.798;2022-12-29T03:21:52;6.20;;;5.23;;
7215;SDS011;3649;48.798;9.798;2022-12-29T03:24:43;8.33;;;5.70;;
7215;SDS011;3649;48.798;9.798;2022-12-29T03:27:15;5.83;;;5.00;;
7215;SDS011;3649;48.798;9.798;2022-12-29T03:29:46;6.53;;;4.93;;
7215;SDS011;3649;48.798;9.798;2022-12-29T03:32:20;6.87;;;5.47;;
7215;SDS011;3649;48.798;9.798;2022-12-29T03:34:50;6.00;;;5.10;;
7215;SDS011;3649;48.798;9.798;2022-12-29T03:37:18;5.30;;;4.80;;
7215;SDS011;3649;48.798;9.798;2022-12-29T03:39:49;5.70;;;5.17;;
7215;SDS011;3649;48.798;9.798;2022-12-29T03:42:17;6.70;;;5.43;;
7215;SDS011;3649;48.798;9.798;2022-12-29T03:44:47;9.37;;;5.67;;
7215;SDS011;3649;48.798;9.798;2022-12-29T03:47:14;8.13;;;5.77;;
7215;SDS011;3649;48.798;9.798;2022-12-29T03:49:42;8.90;;;5.20;;
7215;SDS011;3649;48.798;9.798;2022-12-29T03:52:09;5.87;;;4.83;;
7215;SDS011;3649;48.798;9.798;2022-12-29T03:54:35;6.87;;;5.23;;
7215;SDS011;3649;48.798;9.798;2022-12-29T03:57:02;6.80;;;5.03;;
7215;SDS011;3649;48.798;9.798;2022-12-29T03:59:29;6.63;;;4.67;;
7215;SDS011;3649;48.798;9.798;2022-12-29T04:01:56;4.87;;;4.37;;
7215;SDS011;3649;48.798;9.798;2022-12-29T04:04:24;6.20;;;5.37;;
7215;SDS011;3649;48.798;9.798;2022-12-29T04:06:52;5.23;;;4.73;;
7215;SDS011;3649;48.798;9.798;2022-12-29T04:09:19;8.50;;;5.27;;
7215;SDS011;3649;48.798;9.798;2022-12-29T04:11:45;5.90;;;4.57;;
7215;SDS011;3649;48.798;9.798;2022-12-29T04:14:12;6.37;;;4.40;;
7215;SDS011;3649;48.798;9.798;2022-12-29T04:16:39;8.43;;;5.10;;
7215;SDS011;3649;48.798;9.798;2022-12-29T04:19:06;7.87;;;5.00;;
7215;SDS011;3649;48.798;9.798;2022-12-29T04:21:33;7.43;;;4.50;;
7215;SDS011;3649;48.798;9.798;2022-12-29T04:24:00;4.60;;;4.13;;
7215;SDS011;3649;48.798;9.798;2022-12-29T04:26:27;4.90;;;4.17;;
7215;SDS011;3649;48.798;9.798;2022-12-29T04:28:54;10.67;;;4.53;;
7215;SDS011;3649;48.798;9.798;2022-12-29T04:31:21;6.20;;;4.20;;
7215;SDS011;3649;48.798;9.798;2022-12-29T04:33:47;4.93;;;3.90;;
7215;SDS011;3649;48.798;9.798;2022-12-29T04:36:14;5.47;;;3.90;;
7215;SDS011;3649;48.798;9.798;2022-12-29T04:38:43;7.83;;;3.90;;
7215;SDS011;3649;48.798;9.798;2022-12-29T04:41:10;7.90;;;4.00;;
7215;SDS011;3649;48.798;9.798;2022-12-29T04:43:37;6.87;;;4.07;;
7215;SDS011;3649;48.798;9.798;2022-12-29T04:46:04;6.00;;;4.03;;
7215;SDS011;3649;48.798;9.798;2022-12-29T04:48:31;9.57;;;4.30;;
7215;SDS011;3649;48.798;9.798;2022-12-29T04:50:57;4.83;;;4.23;;
7215;SDS011;3649;48.798;9.798;2022-12-29T04:53:24;6.13;;;3.80;;
7215;SDS011;3649;48.798;9.798;2022-12-29T04:55:51;7.17;;;4.20;;
7215;SDS011;3649;48.798;9.798;2022-12-29T04:58:19;4.87;;;3.97;;
7215;SDS011;3649;48.798;9.798;2022-12-29T05:00:48;5.70;;;3.40;;
7215;SDS011;3649;48.798;9.798;2022-12-29T05:03:16;5.33;;;3.07;;
7215;SDS011;3649;48.798;9.798;2022-12-29T05:05:43;4.10;;;3.00;;
7215;SDS011;3649;48.798;9.798;2022-12-29T05:08:10;4.33;;;2.93;;
7215;SDS011;3649;48.798;9.798;2022-12-29T05:10:37;3.43;;;3.13;;
7215;SDS011;3649;48.798;9.798;2022-12-29T05:13:04;4.37;;;3.30;;
7215;SDS011;3649;48.798;9.798;2022-12-29T05:15:30;3.40;;;3.07;;
7215;SDS011;3649;48.798;9.798;2022-12-29T05:17:57;5.30;;;2.70;;
7215;SDS011;3649;48.798;9.798;2022-12-29T05:20:24;4.73;;;2.60;;
7215;SDS011;3649;48.798;9.798;2022-12-29T05:22:51;4.83;;;2.93;;
7215;SDS011;3649;48.798;9.798;2022-12-29T05:25:17;3.73;;;3.07;;
7215;SDS011;3649;48.798;9.798;2022-12-29T05:27:44;4.00;;;2.63;;
7215;SDS011;3649;48.798;9.798;2022-12-29T05:30:12;4.10;;;2.53;;
7215;SDS011;3649;48.798;9.798;2022-12-29T05:32:40;3.17;;;2.90;;
7215;SDS011;3649;48.798;9.798;2022-12-29T05:35:07;4.23;;;2.87;;
7215;SDS011;3649;48.798;9.798;2022-12-29T05:37:34;3.03;;;2.70;;
7215;SDS011;3649;48.798;9.798;2022-12-29T05:40:01;3.20;;;3.00;;
7215;SDS011;3649;48.798;9.798;2022-12-29T05:42:28;3.27;;;2.60;;
7215;SDS011;3649;48.798;9.798;2022-12-29T05:44:54;2.67;;;2.53;;
7215;SDS011;3649;48.798;9.798;2022-12-29T05:47:21;2.67;;;2.47;;
7215;SDS011;3649;48.798;9.798;2022-12-29T05:49:48;2.40;;;2.20;;
7215;SDS011;3649;48.798;9.798;2022-12-29T05:52:15;4.40;;;2.80;;
7215;SDS011;3649;48.798;9.798;2022-12-29T05:54:42;4.87;;;2.70;;
7215;SDS011;3649;48.798;9.798;2022-12-29T05:57:09;3.80;;;3.10;;
7215;SDS011;3649;48.798;9.798;2022-12-29T05:59:36;9.97;;;6.33;;
7215;SDS011;3649;48.798;9.798;2022-12-29T06:02:03;10.90;;;6.10;;
7215;SDS011;3649;48.798;9.798;2022-12-29T06:04:30;6.60;;;4.47;;
7215;SDS011;3649;48.798;9.798;2022-12-29T06:06:56;15.67;;;6.53;;
7215;SDS011;3649;48.798;9.798;2022-12-29T06:09:23;12.13;;;5.57;;
7215;SDS011;3649;48.798;9.798;2022-12-29T06:11:50;8.23;;;5.17;;
7215;SDS011;3649;48.798;9.798;2022-12-29T06:14:17;12.27;;;7.00;;
7215;SDS011;3649;48.798;9.798;2022-12-29T06:16:44;10.63;;;6.20;;
7215;SDS011;3649;48.798;9.798;2022-12-29T06:19:11;9.00;;;6.20;;
7215;SDS011;3649;48.798;9.798;2022-12-29T06:21:37;7.67;;;5.47;;
7215;SDS011;3649;48.798;9.798;2022-12-29T06:24:04;9.20;;;5.60;;
7215;SDS011;3649;48.798;9.798;2022-12-29T06:26:31;6.80;;;4.87;;
7215;SDS011;3649;48.798;9.798;2022-12-29T06:28:58;7.57;;;5.40;;
7215;SDS011;3649;48.798;9.798;2022-12-29T06:31:25;7.23;;;4.67;;
7215;SDS011;3649;48.798;9.798;2022-12-29T06:33:52;7.80;;;5.43;;
7215;SDS011;3649;48.798;9.798;2022-12-29T06:36:18;12.50;;;5.43;;
7215;SDS011;3649;48.798;9.798;2022-12-29T06:38:45;10.70;;;5.90;;
7215;SDS011;3649;48.798;9.798;2022-12-29T06:41:12;10.20;;;6.67;;
7215;SDS011;3649;48.798;9.798;2022-12-29T06:43:39;8.03;;;5.57;;
7215;SDS011;3649;48.798;9.798;2022-12-29T06:46:06;7.83;;;5.80;;
7215;SDS011;3649;48.798;9.798;2022-12-29T06:48:32;10.73;;;6.00;;
7215;SDS011;3649;48.798;9.798;2022-12-29T06:50:59;10.77;;;6.07;;
7215;SDS011;3649;48.798;9.798;2022-12-29T06:53:26;6.30;;;5.47;;
7215;SDS011;3649;48.798;9.798;2022-12-29T06:55:53;8.13;;;4.33;;
7215;SDS011;3649;48.798;9.798;2022-12-29T06:58:20;5.97;;;4.33;;
7215;SDS011;3649;48.798;9.798;2022-12-29T07:00:47;6.17;;;4.43;;
7215;SDS011;3649;48.798;9.798;2022-12-29T07:03:14;8.20;;;4.30;;
7215;SDS011;3649;48.798;9.798;2022-12-29T07:05:42;5.87;;;4.53;;
7215;SDS011;3649;48.798;9.798;2022-12-29T07:08:09;5.37;;;4.83;;
7215;SDS011;3649;48.798;9.798;2022-12-29T07:10:35;6.07;;;4.70;;
7215;SDS011;3649;48.798;9.798;2022-12-29T07:13:02;11.17;;;5.77;;
7215;SDS011;3649;48.798;9.798;2022-12-29T07:15:29;5.57;;;4.93;;
7215;SDS011;3649;48.798;9.798;2022-12-29T07:17:56;8.83;;;5.07;;
7215;SDS011;3649;48.798;9.798;2022-12-29T07:20:22;7.87;;;5.60;;
7215;SDS011;3649;48.798;9.798;2022-12-29T07:22:52;6.50;;;4.80;;
7215;SDS011;3649;48.798;9.798;2022-12-29T07:25:19;8.63;;;5.20;;
7215;SDS011;3649;48.798;9.798;2022-12-29T07:27:46;4.87;;;4.40;;
7215;SDS011;3649;48.798;9.798;2022-12-29T07:30:13;6.37;;;4.60;;
7215;SDS011;3649;48.798;9.798;2022-12-29T07:32:39;8.20;;;6.20;;
7215;SDS011;3649;48.798;9.798;2022-12-29T07:35:07;11.07;;;8.37;;
7215;SDS011;3649;48.798;9.798;2022-12-29T07:37:34;8.87;;;5.93;;
7215;SDS011;3649;48.798;9.798;2022-12-29T07:40:01;6.67;;;5.13;;
7215;SDS011;3649;48.798;9.798;2022-12-29T07:42:30;5.90;;;3.97;;
7215;SDS011;3649;48.798;9.798;2022-12-29T07:44:57;8.37;;;5.37;;
7215;SDS011;3649;48.798;9.798;2022-12-29T07:47:25;6.97;;;4.47;;
7215;SDS011;3649;48.798;9.798;2022-12-29T07:49:52;6.23;;;5.33;;
7215;SDS011;3649;48.798;9.798;2022-12-29T07:52:19;7.13;;;4.90;;
7215;SDS011;3649;48.798;9.798;2022-12-29T07:54:45;8.50;;;6.07;;
7215;SDS011;3649;48.798;9.798;2022-12-29T07:57:12;7.80;;;5.37;;
7215;SDS011;3649;48.798;9.798;2022-12-29T07:59:39;6.80;;;4.47;;
7215;SDS011;3649;48.798;9.798;2022-12-29T08:02:08;6.67;;;5.33;;
7215;SDS011;3649;48.798;9.798;2022-12-29T08:04:36;7.53;;;6.00;;
7215;SDS011;3649;48.798;9.798;2022-12-29T08:07:03;12.53;;;7.33;;
7215;SDS011;3649;48.798;9.798;2022-12-29T08:09:31;12.60;;;7.83;;
7215;SDS011;3649;48.798;9.798;2022-12-29T08:11:57;13.80;;;7.03;;
7215;SDS011;3649;48.798;9.798;2022-12-29T08:14:25;7.73;;;5.53;;
7215;SDS011;3649;48.798;9.798;2022-12-29T08:16:51;12.47;;;6.20;;
7215;SDS011;3649;48.798;9.798;2022-12-29T08:19:18;8.83;;;6.50;;
7215;SDS011;3649;48.798;9.798;2022-12-29T08:21:45;10.47;;;6.90;;
7215;SDS011;3649;48.798;9.798;2022-12-29T08:24:12;7.77;;;6.73;;
7215;SDS011;3649;48.798;9.798;2022-12-29T08:26:39;9.90;;;7.13;;
7215;SDS011;3649;48.798;9.798;2022-12-29T08:29:05;9.63;;;6.87;;
7215;SDS011;3649;48.798;9.798;2022-12-29T08:31:32;9.30;;;7.20;;
7215;SDS011;3649;48.798;9.798;2022-12-29T08:33:59;10.57;;;7.37;;
7215;SDS011;3649;48.798;9.798;2022-12-29T08:36:27;9.30;;;7.20;;
7215;SDS011;3649;48.798;9.798;2022-12-29T08:38:54;12.63;;;8.70;;
7215;SDS011;3649;48.798;9.798;2022-12-29T08:41:21;21.37;;;13.03;;
7215;SDS011;3649;48.798;9.798;2022-12-29T08:43:48;13.17;;;9.47;;
7215;SDS011;3649;48.798;9.798;2022-12-29T08:46:16;23.00;;;12.07;;
7215;SDS011;3649;48.798;9.798;2022-12-29T08:48:43;20.17;;;12.07;;
7215;SDS011;3649;48.798;9.798;2022-12-29T08:51:10;22.50;;;12.07;;
7215;SDS011;3649;48.798;9.798;2022-12-29T08:53:37;19.30;;;12.27;;
7215;SDS011;3649;48.798;9.798;2022-12-29T08:56:04;19.63;;;12.53;;
7215;SDS011;3649;48.798;9.798;2022-12-29T08:58:31;20.63;;;13.13;;
7215;SDS011;3649;48.798;9.798;2022-12-29T09:00:58;18.30;;;11.30;;
7215;SDS011;3649;48.798;9.798;2022-12-29T09:03:25;18.20;;;13.00;;
7215;SDS011;3649;48.798;9.798;2022-12-29T09:06:12;17.73;;;12.00;;
7215;SDS011;3649;48.798;9.798;2022-12-29T09:08:41;17.67;;;11.20;;
7215;SDS011;3649;48.798;9.798;2022-12-29T09:11:10;11.97;;;7.70;;
7215;SDS011;3649;48.798;9.798;2022-12-29T09:13:37;11.73;;;8.37;;
7215;SDS011;3649;48.798;9.798;2022-12-29T09:16:05;12.27;;;8.70;;
7215;SDS011;3649;48.798;9.798;2022-12-29T09:18:32;7.07;;;4.70;;
7215;SDS011;3649;48.798;9.798;2022-12-29T09:21:00;8.17;;;3.87;;
7215;SDS011;3649;48.798;9.798;2022-12-29T09:23:29;8.97;;;3.30;;
7215;SDS011;3649;48.798;9.798;2022-12-29T09:25:56;3.63;;;3.00;;
7215;SDS011;3649;48.798;9.798;2022-12-29T09:28:23;2.47;;;2.20;;
7215;SDS011;3649;48.798;9.798;2022-12-29T09:30:50;3.97;;;2.47;;
7215;SDS011;3649;48.798;9.798;2022-12-29T09:33:17;4.43;;;3.03;;
7215;SDS011;3649;48.798;9.798;2022-12-29T09:35:44;2.53;;;1.87;;
7215;SDS011;3649;48.798;9.798;2022-12-29T09:38:16;4.07;;;2.17;;
7215;SDS011;3649;48.798;9.798;2022-12-29T09:40:44;3.33;;;2.37;;
7215;SDS011;3649;48.798;9.798;2022-12-29T09:46:11;2.43;;;1.77;;
7215;SDS011;3649;48.798;9.798;2022-12-29T09:49:02;1.83;;;1.73;;
7215;SDS011;3649;48.798;9.798;2022-12-29T09:51:51;2.40;;;2.20;;
7215;SDS011;3649;48.798;9.798;2022-12-29T09:57:09;2.50;;;2.30;;
7215;SDS011;3649;48.798;9.798;2022-12-29T09:59:43;2.83;;;1.93;;
7215;SDS011;3649;48.798;9.798;2022-12-29T10:04:59;2.07;;;1.97;;
7215;SDS011;3649;48.798;9.798;2022-12-29T10:07:28;1.90;;;1.80;;
7215;SDS011;3649;48.798;9.798;2022-12-29T10:10:09;1.53;;;1.47;;
7215;SDS011;3649;48.798;9.798;2022-12-29T10:24:06;3.53;;;2.03;;
7215;SDS011;3649;48.798;9.798;2022-12-29T10:26:40;2.13;;;1.90;;
7215;SDS011;3649;48.798;9.798;2022-12-29T10:29:16;2.17;;;1.80;;
7215;SDS011;3649;48.798;9.798;2022-12-29T10:32:10;1.83;;;1.70;;
7215;SDS011;3649;48.798;9.798;2022-12-29T10:34:44;2.43;;;1.67;;
7215;SDS011;3649;48.798;9.798;2022-12-29T10:39:45;2.47;;;2.20;;
7215;SDS011;3649;48.798;9.798;2022-12-29T10:42:20;3.20;;;1.80;;
7215;SDS011;3649;48.798;9.798;2022-12-29T10:44:54;1.87;;;1.70;;
7215;SDS011;3649;48.798;9.798;2022-12-29T10:47:29;3.17;;;1.73;;
7215;SDS011;3649;48.798;9.798;2022-12-29T10:50:01;1.80;;;1.70;;
7215;SDS011;3649;48.798;9.798;2022-12-29T10:52:28;3.33;;;1.70;;
7215;SDS011;3649;48.798;9.798;2022-12-29T10:54:59;3.00;;;1.60;;
7215;SDS011;3649;48.798;9.798;2022-12-29T11:08:04;4.93;;;1.80;;
7215;SDS011;3649;48.798;9.798;2022-12-29T11:10:38;2.07;;;1.87;;
7215;SDS011;3649;48.798;9.798;2022-12-29T11:13:11;1.97;;;1.80;;
7215;SDS011;3649;48.798;9.798;2022-12-29T11:20:51;2.40;;;1.93;;
7215;SDS011;3649;48.798;9.798;2022-12-29T11:23:35;1.87;;;1.77;;
7215;SDS011;3649;48.798;9.798;2022-12-29T11:28:37;3.87;;;2.10;;
7215;SDS011;3649;48.798;9.798;2022-12-29T11:31:04;2.23;;;1.70;;
7215;SDS011;3649;48.798;9.798;2022-12-29T11:33:37;3.50;;;1.77;;
7215;SDS011;3649;48.798;9.798;2022-12-29T11:36:06;1.67;;;1.67;;
7215;SDS011;3649;48.798;9.798;2022-12-29T11:38:40;2.27;;;1.73;;
7215;SDS011;3649;48.798;9.798;2022-12-29T11:41:29;1.70;;;1.60;;
7215;SDS011;3649;48.798;9.798;2022-12-29T11:43:58;2.03;;;1.90;;
7215;SDS011;3649;48.798;9.798;2022-12-29T11:46:32;2.97;;;1.70;;
7215;SDS011;3649;48.798;9.798;2022-12-29T11:49:03;2.30;;;1.60;;
7215;SDS011;3649;48.798;9.798;2022-12-29T11:51:33;1.93;;;1.80;;
7215;SDS011;3649;48.798;9.798;2022-12-29T11:54:11;8.90;;;3.77;;
7215;SDS011;3649;48.798;9.798;2022-12-29T11:56:48;3.50;;;1.90;;
7215;SDS011;3649;48.798;9.798;2022-12-29T12:02:00;2.03;;;1.70;;
7215;SDS011;3649;48.798;9.798;2022-12-29T12:04:41;1.40;;;1.40;;
7215;SDS011;3649;48.798;9.798;2022-12-29T12:09:42;3.10;;;1.63;;
7215;SDS011;3649;48.798;9.798;2022-12-29T12:12:35;3.70;;;1.57;;
7215;SDS011;3649;48.798;9.798;2022-12-29T12:15:08;1.80;;;1.70;;
7215;SDS011;3649;48.798;9.798;2022-12-29T12:17:50;2.67;;;1.60;;
7215;SDS011;3649;48.798;9.798;2022-12-29T12:20:34;2.97;;;1.70;;
7215;SDS011;3649;48.798;9.798;2022-12-29T12:31:13;2.17;;;1.97;;
7215;SDS011;3649;48.798;9.798;2022-12-29T12:33:46;2.37;;;1.87;;
7215;SDS011;3649;48.798;9.798;2022-12-29T12:39:11;3.80;;;1.90;;
7215;SDS011;3649;48.798;9.798;2022-12-29T12:47:33;1.93;;;1.77;;
7215;SDS011;3649;48.798;9.798;2022-12-29T12:53:31;2.10;;;1.87;;
7215;SDS011;3649;48.798;9.798;2022-12-29T12:56:03;2.20;;;1.80;;
7215;SDS011;3649;48.798;9.798;2022-12-29T12:58:53;1.70;;;1.60;;
7215;SDS011;3649;48.798;9.798;2022-12-29T13:06:58;2.47;;;2.20;;
7215;SDS011;3649;48.798;9.798;2022-12-29T13:09:55;1.80;;;1.70;;
7215;SDS011;3649;48.798;9.798;2022-12-29T13:12:49;2.27;;;2.07;;
7215;SDS011;3649;48.798;9.798;2022-12-29T13:18:59;2.97;;;1.70;;
7215;SDS011;3649;48.798;9.798;2022-12-29T13:21:50;3.80;;;2.07;;
7215;SDS011;3649;48.798;9.798;2022-12-29T13:24:50;2.00;;;1.87;;
7215;SDS011;3649;48.798;9.798;2022-12-29T13:30:17;2.10;;;1.87;;
7215;SDS011;3649;48.798;9.798;2022-12-29T13:38:40;1.83;;;1.60;;
7215;SDS011;3649;48.798;9.798;2022-12-29T13:41:14;2.77;;;1.80;;
7215;SDS011;3649;48.798;9.798;2022-12-29T13:43:50;1.83;;;1.60;;
7215;SDS011;3649;48.798;9.798;2022-12-29T13:46:21;1.83;;;1.73;;
7215;SDS011;3649;48.798;9.798;2022-12-29T13:48:53;2.83;;;2.00;;
7215;SDS011;3649;48.798;9.798;2022-12-29T13:51:25;2.80;;;1.73;;
7215;SDS011;3649;48.798;9.798;2022-12-29T13:57:02;1.90;;;1.80;;
7215;SDS011;3649;48.798;9.798;2022-12-29T13:59:54;1.80;;;1.57;;
7215;SDS011;3649;48.798;9.798;2022-12-29T14:07:46;1.67;;;1.57;;
7215;SDS011;3649;48.798;9.798;2022-12-29T14:13:06;2.27;;;2.03;;
7215;SDS011;3649;48.798;9.798;2022-12-29T14:15:40;2.30;;;2.10;;
7215;SDS011;3649;48.798;9.798;2022-12-29T14:28:36;1.80;;;1.70;;
7215;SDS011;3649;48.798;9.798;2022-12-29T14:36:38;2.00;;;1.90;;
7215;SDS011;3649;48.798;9.798;2022-12-29T14:42:06;2.37;;;2.27;;
7215;SDS011;3649;48.798;9.798;2022-12-29T14:47:43;1.70;;;1.60;;
7215;SDS011;3649;48.798;9.798;2022-12-29T14:52:56;1.67;;;1.57;;
7215;SDS011;3649;48.798;9.798;2022-12-29T14:55:43;1.67;;;1.57;;
7215;SDS011;3649;48.798;9.798;2022-12-29T15:00:54;2.23;;;1.80;;
7215;SDS011;3649;48.798;9.798;2022-12-29T15:03:22;2.67;;;1.67;;
7215;SDS011;3649;48.798;9.798;2022-12-29T15:06:08;2.60;;;1.80;;
7215;SDS011;3649;48.798;9.798;2022-12-29T15:09:40;3.10;;;2.23;;
7215;SDS011;3649;48.798;9.798;2022-12-29T15:11:53;5.20;;;1.70;;
7215;SDS011;3649;48.798;9.798;2022-12-29T15:14:34;3.33;;;2.10;;
7215;SDS011;3649;48.798;9.798;2022-12-29T15:19:53;1.87;;;1.77;;
7215;SDS011;3649;48.798;9.798;2022-12-29T15:22:22;1.97;;;1.87;;
7215;SDS011;3649;48.798;9.798;2022-12-29T15:24:50;3.10;;;1.97;;
7215;SDS011;3649;48.798;9.798;2022-12-29T15:27:20;2.60;;;2.07;;
7215;SDS011;3649;48.798;9.798;2022-12-29T15:29:55;2.17;;;1.97;;
7215;SDS011;3649;48.798;9.798;2022-12-29T15:32:28;2.17;;;1.97;;
7215;SDS011;3649;48.798;9.798;2022-12-29T15:35:21;2.53;;;2.33;;
7215;SDS011;3649;48.798;9.798;2022-12-29T15:37:54;2.90;;;2.60;;
7215;SDS011;3649;48.798;9.798;2022-12-29T15:40:23;2.97;;;1.90;;
7215;SDS011;3649;48.798;9.798;2022-12-29T15:46:12;2.90;;;2.70;;
7215;SDS011;3649;48.798;9.798;2022-12-29T15:48:39;3.47;;;2.00;;
7215;SDS011;3649;48.798;9.798;2022-12-29T15:51:25;2.20;;;2.10;;
7215;SDS011;3649;48.798;9.798;2022-12-29T15:54:00;21.50;;;17.20;;
7215;SDS011;3649;48.798;9.798;2022-12-29T15:56:28;5.87;;;5.33;;
7215;SDS011;3649;48.798;9.798;2022-12-29T15:58:56;2.77;;;2.27;;
7215;SDS011;3649;48.798;9.798;2022-12-29T16:01:27;4.70;;;2.50;;
7215;SDS011;3649;48.798;9.798;2022-12-29T16:04:00;3.03;;;2.03;;
7215;SDS011;3649;48.798;9.798;2022-12-29T16:06:36;4.37;;;2.60;;
7215;SDS011;3649;48.798;9.798;2022-12-29T16:09:05;2.53;;;2.30;;
7215;SDS011;3649;48.798;9.798;2022-12-29T16:11:40;3.20;;;2.40;;
7215;SDS011;3649;48.798;9.798;2022-12-29T16:14:14;3.90;;;3.13;;
7215;SDS011;3649;48.798;9.798;2022-12-29T16:16:45;3.03;;;2.50;;
7215;SDS011;3649;48.798;9.798;2022-12-29T16:19:23;3.13;;;2.70;;
7215;SDS011;3649;48.798;9.798;2022-12-29T16:21:58;2.83;;;2.30;;
7215;SDS011;3649;48.798;9.798;2022-12-29T16:24:28;1.93;;;1.83;;
7215;SDS011;3649;48.798;9.798;2022-12-29T16:27:02;2.40;;;2.20;;
7215;SDS011;3649;48.798;9.798;2022-12-29T16:29:32;3.90;;;2.40;;
7215;SDS011;3649;48.798;9.798;2022-12-29T16:32:00;2.47;;;2.27;;
7215;SDS011;3649;48.798;9.798;2022-12-29T16:34:33;4.23;;;2.10;;
7215;SDS011;3649;48.798;9.798;2022-12-29T16:37:03;2.57;;;2.37;;
7215;SDS011;3649;48.798;9.798;2022-12-29T16:39:50;2.27;;;1.93;;
7215;SDS011;3649;48.798;9.798;2022-12-29T16:47:45;3.73;;;1.73;;
7215;SDS011;3649;48.798;9.798;2022-12-29T16:50:31;1.87;;;1.77;;
7215;SDS011;3649;48.798;9.798;2022-12-29T16:52:59;2.83;;;1.30;;
7215;SDS011;3649;48.798;9.798;2022-12-29T16:55:28;1.57;;;1.47;;
7215;SDS011;3649;48.798;9.798;2022-12-29T16:57:56;1.60;;;1.50;;
7215;SDS011;3649;48.798;9.798;2022-12-29T17:00:25;2.10;;;1.27;;
7215;SDS011;3649;48.798;9.798;2022-12-29T17:02:54;1.20;;;1.20;;
7215;SDS011;3649;48.798;9.798;2022-12-29T17:05:23;1.60;;;1.50;;
7215;SDS011;3649;48.798;9.798;2022-12-29T17:07:50;1.67;;;1.57;;
7215;SDS011;3649;48.798;9.798;2022-12-29T17:10:19;1.50;;;1.40;;
7215;SDS011;3649;48.798;9.798;2022-12-29T17:12:46;2.00;;;1.90;;
7215;SDS011;3649;48.798;9.798;2022-12-29T17:15:24;1.90;;;1.70;;
7215;SDS011;3649;48.798;9.798;2022-12-29T17:17:55;1.70;;;1.60;;
7215;SDS011;3649;48.798;9.798;2022-12-29T17:20:23;2.43;;;1.60;;
7215;SDS011;3649;48.798;9.798;2022-12-29T17:22:52;1.50;;;1.50;;
7215;SDS011;3649;48.798;9.798;2022-12-29T17:25:29;1.80;;;1.70;;
7215;SDS011;3649;48.798;9.798;2022-12-29T17:28:02;1.53;;;1.50;;
7215;SDS011;3649;48.798;9.798;2022-12-29T17:30:32;2.10;;;1.83;;
7215;SDS011;3649;48.798;9.798;2022-12-29T17:33:05;2.03;;;1.93;;
7215;SDS011;3649;48.798;9.798;2022-12-29T17:35:35;4.00;;;1.97;;
7215;SDS011;3649;48.798;9.798;2022-12-29T17:38:02;2.60;;;2.40;;
7215;SDS011;3649;48.798;9.798;2022-12-29T17:40:38;2.47;;;2.27;;
7215;SDS011;3649;48.798;9.798;2022-12-29T17:43:07;2.07;;;1.97;;
7215;SDS011;3649;48.798;9.798;2022-12-29T17:45:39;4.90;;;3.03;;
7215;SDS011;3649;48.798;9.798;2022-12-29T17:48:14;2.70;;;2.50;;
7215;SDS011;3649;48.798;9.798;2022-12-29T17:50:42;7.97;;;4.47;;
7215;SDS011;3649;48.798;9.798;2022-12-29T17:53:10;8.20;;;6.50;;
7215;SDS011;3649;48.798;9.798;2022-12-29T17:55:42;7.43;;;4.20;;
7215;SDS011;3649;48.798;9.798;2022-12-29T17:58:25;4.80;;;4.37;;
7215;SDS011;3649;48.798;9.798;2022-12-29T18:00:55;4.30;;;3.90;;
7215;SDS011;3649;48.798;9.798;2022-12-29T18:03:32;3.70;;;3.23;;
7215;SDS011;3649;48.798;9.798;2022-12-29T18:06:00;5.73;;;5.13;;
7215;SDS011;3649;48.798;9.798;2022-12-29T18:08:30;6.87;;;5.93;;
7215;SDS011;3649;48.798;9.798;2022-12-29T18:10:57;7.30;;;5.50;;
7215;SDS011;3649;48.798;9.798;2022-12-29T18:13:26;6.73;;;5.13;;
7215;SDS011;3649;48.798;9.798;2022-12-29T18:16:09;8.17;;;5.60;;
7215;SDS011;3649;48.798;9.798;2022-12-29T18:18:37;4.57;;;4.17;;
7215;SDS011;3649;48.798;9.798;2022-12-29T18:21:04;5.00;;;3.50;;
7215;SDS011;3649;48.798;9.798;2022-12-29T18:23:31;5.00;;;4.47;;